createdAt,value
2018-06-08T00:01:36.615Z,17.70
2018-06-08T00:04:04.837Z,17.40
2018-06-08T00:06:33.068Z,17.20
2018-06-08T00:09:01.727Z,17.10
2018-06-08T00:13:58.266Z,17.30
2018-06-08T00:16:26.489Z,17.30
2018-06-08T00:18:55.086Z,17.40
2018-06-08T00:21:23.318Z,17.40
2018-06-08T00:23:52.012Z,17.40
2018-06-08T00:26:20.255Z,17.50
2018-06-08T00:28:48.747Z,17.50
2018-06-08T00:31:17.000Z,17.50
2018-06-08T00:33:45.278Z,17.60
2018-06-08T00:36:13.486Z,17.70
2018-06-08T00:38:41.851Z,17.60
2018-06-08T00:41:10.087Z,17.60
2018-06-08T00:43:38.931Z,17.50
2018-06-08T00:46:07.235Z,17.40
2018-06-08T00:48:35.472Z,17.40
2018-06-08T00:51:03.695Z,17.40
2018-06-08T00:53:31.962Z,17.50
2018-06-08T00:56:00.188Z,17.60
2018-06-08T00:58:28.433Z,17.80
2018-06-08T01:00:57.321Z,17.90
2018-06-08T01:03:26.131Z,17.90
2018-06-08T01:05:54.386Z,17.70
2018-06-08T01:08:22.603Z,17.40
2018-06-08T01:10:50.809Z,17.30
2018-06-08T01:13:19.039Z,17.30
2018-06-08T01:15:47.230Z,17.40
2018-06-08T01:18:15.438Z,17.60
2018-06-08T01:20:44.083Z,17.70
2018-06-08T01:23:12.324Z,17.80
2018-06-08T01:25:40.590Z,17.90
2018-06-08T01:28:09.394Z,17.90
2018-06-08T01:30:38.325Z,17.90
2018-06-08T01:33:06.534Z,18.00
2018-06-08T01:35:34.821Z,18.00
2018-06-08T01:38:04.186Z,18.10
2018-06-08T01:40:32.498Z,18.10
2018-06-08T01:43:00.747Z,18.00
2018-06-08T01:45:29.222Z,17.90
2018-06-08T01:47:57.413Z,17.80
2018-06-08T01:50:25.628Z,17.60
2018-06-08T01:52:54.436Z,17.50
2018-06-08T01:55:24.135Z,17.40
2018-06-08T01:57:52.634Z,17.40
2018-06-08T02:00:20.881Z,17.50
2018-06-08T02:02:49.152Z,17.60
2018-06-08T02:05:17.427Z,17.70
2018-06-08T02:07:45.650Z,17.70
2018-06-08T02:12:43.472Z,17.70
2018-06-08T02:15:11.737Z,17.70
2018-06-08T02:17:40.503Z,17.70
2018-06-08T02:20:08.783Z,17.70
2018-06-08T02:22:37.035Z,17.80
2018-06-08T02:25:05.594Z,18.00
2018-06-08T02:27:33.819Z,17.90
2018-06-08T02:30:02.081Z,17.90
2018-06-08T02:32:30.308Z,18.00
2018-06-08T02:35:03.543Z,18.00
2018-06-08T02:37:31.762Z,18.00
2018-06-08T02:40:00.510Z,17.90
2018-06-08T02:42:29.303Z,17.90
2018-06-08T02:44:57.520Z,17.90
2018-06-08T02:47:25.779Z,17.90
2018-06-08T02:49:53.953Z,18.00
2018-06-08T02:52:22.187Z,17.90
2018-06-08T02:57:18.456Z,17.90
2018-06-08T02:59:48.861Z,18.00
2018-06-08T03:02:17.075Z,18.10
2018-06-08T03:04:45.313Z,18.10
2018-06-08T03:07:13.498Z,18.10
2018-06-08T03:09:41.715Z,18.20
2018-06-08T03:12:10.511Z,18.10
2018-06-08T03:14:39.293Z,18.00
2018-06-08T03:17:08.102Z,17.80
2018-06-08T03:19:36.388Z,17.60
2018-06-08T03:22:04.574Z,17.50
2018-06-08T03:24:33.366Z,17.40
2018-06-08T03:27:02.215Z,17.40
2018-06-08T03:29:31.095Z,17.40
2018-06-08T03:32:00.003Z,17.60
2018-06-08T03:34:28.251Z,17.90
2018-06-08T03:36:56.493Z,18.00
2018-06-08T03:39:24.738Z,18.10
2018-06-08T03:41:52.963Z,18.20
2018-06-08T03:44:21.203Z,18.20
2018-06-08T03:46:50.415Z,18.10
2018-06-08T03:49:18.651Z,18.10
2018-06-08T03:51:46.854Z,18.00
2018-06-08T03:54:15.108Z,18.00
2018-06-08T03:56:48.121Z,18.00
2018-06-08T04:01:45.101Z,18.10
2018-06-08T04:04:13.335Z,18.00
2018-06-08T04:06:41.571Z,17.90
2018-06-08T04:09:09.793Z,17.80
2018-06-08T04:11:38.014Z,17.70
2018-06-08T04:14:06.269Z,17.60
2018-06-08T04:16:34.466Z,17.50
2018-06-08T04:19:02.965Z,17.50
2018-06-08T04:21:31.196Z,17.70
2018-06-08T04:24:00.327Z,17.80
2018-06-08T04:26:28.554Z,17.80
2018-06-08T04:28:56.776Z,17.70
2018-06-08T04:31:25.323Z,17.50
2018-06-08T04:33:53.555Z,17.70
2018-06-08T04:36:21.809Z,17.80
2018-06-08T04:38:50.201Z,17.90
2018-06-08T04:41:18.486Z,17.90
2018-06-08T04:43:46.659Z,17.90
2018-06-08T04:46:14.960Z,17.90
2018-06-08T04:48:43.690Z,17.90
2018-06-08T04:51:11.906Z,18.00
2018-06-08T04:53:40.618Z,18.00
2018-06-08T04:56:09.408Z,18.10
2018-06-08T04:58:38.362Z,18.10
2018-06-08T05:01:07.249Z,18.20
2018-06-08T05:03:35.987Z,18.10
2018-06-08T05:06:04.779Z,18.10
2018-06-08T05:08:32.978Z,18.00
2018-06-08T05:11:01.518Z,17.90
2018-06-08T05:13:30.702Z,18.00
2018-06-08T05:15:58.988Z,18.10
2018-06-08T05:18:27.891Z,18.10
2018-06-08T05:20:56.117Z,18.20
2018-06-08T05:23:25.638Z,18.30
2018-06-08T05:25:53.834Z,18.40
2018-06-08T05:28:22.101Z,18.60
2018-06-08T05:30:50.309Z,18.60
2018-06-08T05:33:18.513Z,18.60
2018-06-08T05:35:46.825Z,18.50
2018-06-08T05:38:15.044Z,18.60
2018-06-08T05:40:50.481Z,18.60
2018-06-08T05:43:18.695Z,18.60
2018-06-08T05:45:46.934Z,18.60
2018-06-08T05:48:15.248Z,18.80
2018-06-08T05:50:43.387Z,18.80
2018-06-08T05:53:13.814Z,18.80
2018-06-08T05:55:42.834Z,18.80
2018-06-08T05:58:11.765Z,18.80
2018-06-08T06:00:39.946Z,18.90
2018-06-08T06:03:08.133Z,19.00
2018-06-08T06:05:36.349Z,19.10
2018-06-08T06:08:05.565Z,19.10
2018-06-08T06:10:34.957Z,19.10
2018-06-08T06:13:04.040Z,19.00
2018-06-08T06:15:32.897Z,19.00
2018-06-08T06:18:01.147Z,19.00
2018-06-08T06:20:29.353Z,19.10
2018-06-08T06:22:57.506Z,19.20
2018-06-08T06:25:25.738Z,19.30
2018-06-08T06:27:54.449Z,19.30
2018-06-08T06:30:22.693Z,19.60
2018-06-08T06:32:51.890Z,19.80
2018-06-08T06:35:20.370Z,20.20
2018-06-08T06:37:48.589Z,20.70
2018-06-08T06:40:16.804Z,21.30
2018-06-08T06:42:45.577Z,21.70
2018-06-08T06:45:13.810Z,21.80
2018-06-08T06:47:42.026Z,22.00
2018-06-08T06:50:10.237Z,22.20
2018-06-08T06:52:38.497Z,22.40
2018-06-08T06:55:06.918Z,22.50
2018-06-08T06:57:35.198Z,22.20
2018-06-08T07:00:03.449Z,21.80
2018-06-08T07:02:32.150Z,21.80
2018-06-08T07:05:02.103Z,21.90
2018-06-08T07:07:31.122Z,22.20
2018-06-08T07:09:59.346Z,22.70
2018-06-08T07:12:28.393Z,22.90
2018-06-08T07:14:56.555Z,22.80
2018-06-08T07:17:25.527Z,23.00
2018-06-08T07:22:22.685Z,23.70
2018-06-08T07:24:50.939Z,23.60
2018-06-08T07:27:19.163Z,23.80
2018-06-08T07:29:47.341Z,23.80
2018-06-08T07:32:15.701Z,23.80
2018-06-08T07:34:44.077Z,24.00
2018-06-08T07:37:14.133Z,24.90
2018-06-08T07:39:42.361Z,25.70
2018-06-08T07:42:10.577Z,26.30
2018-06-08T07:44:38.753Z,26.10
2018-06-08T07:47:07.042Z,26.40
2018-06-08T07:49:36.921Z,26.90
2018-06-08T07:52:05.085Z,26.90
2018-06-08T07:54:33.314Z,26.80
2018-06-08T07:57:02.954Z,26.40
2018-06-08T07:59:31.554Z,26.30
2018-06-08T08:02:00.048Z,26.40
2018-06-08T08:04:28.280Z,26.50
2018-06-08T08:06:56.469Z,26.60
2018-06-08T08:11:52.680Z,25.90
2018-06-08T08:14:20.974Z,26.10
2018-06-08T08:19:17.416Z,26.40
2018-06-08T08:21:45.651Z,26.50
2018-06-08T08:24:13.869Z,26.80
2018-06-08T08:26:42.609Z,27.10
2018-06-08T08:29:12.422Z,26.80
2018-06-08T08:31:41.049Z,27.00
2018-06-08T08:34:09.300Z,27.30
2018-06-08T08:36:37.506Z,27.60
2018-06-08T08:39:08.637Z,28.00
2018-06-08T08:41:36.891Z,28.50
2018-06-08T08:44:05.618Z,29.20
2018-06-08T08:46:34.270Z,29.50
2018-06-08T08:49:02.782Z,30.30
2018-06-08T08:51:31.888Z,30.70
2018-06-08T08:54:00.040Z,31.30
2018-06-08T08:56:28.882Z,32.00
2018-06-08T08:58:57.109Z,32.80
2018-06-08T09:01:25.915Z,32.40
2018-06-08T09:06:22.206Z,29.70
2018-06-08T09:08:51.317Z,30.20
2018-06-08T09:11:19.638Z,30.90
2018-06-08T09:13:48.016Z,31.80
2018-06-08T09:16:16.253Z,32.20
2018-06-08T09:18:44.810Z,32.30
2018-06-08T09:21:13.054Z,31.80
2018-06-08T09:23:41.378Z,31.90
2018-06-08T09:26:09.634Z,32.00
2018-06-08T09:28:37.845Z,31.80
2018-06-08T09:31:06.097Z,31.30
2018-06-08T09:33:34.273Z,30.60
2018-06-08T09:36:02.530Z,30.00
2018-06-08T09:38:30.768Z,29.90
2018-06-08T09:43:27.181Z,29.70
2018-06-08T09:45:56.926Z,30.00
2018-06-08T09:48:25.103Z,30.40
2018-06-08T09:50:54.953Z,30.10
2018-06-08T09:53:23.788Z,30.30
2018-06-08T09:55:52.109Z,30.70
2018-06-08T09:58:20.330Z,31.00
2018-06-08T10:00:49.559Z,31.30
2018-06-08T10:03:17.820Z,31.80
2018-06-08T10:05:46.055Z,32.30
2018-06-08T10:08:14.265Z,32.60
2018-06-08T10:10:42.568Z,32.90
2018-06-08T10:13:10.741Z,33.10
2018-06-08T10:15:39.554Z,33.20
2018-06-08T10:18:07.782Z,33.20
2018-06-08T10:20:35.988Z,32.80
2018-06-08T10:23:05.022Z,32.20
2018-06-08T10:25:33.243Z,31.50
2018-06-08T10:28:01.788Z,31.60
2018-06-08T10:30:29.974Z,32.30
2018-06-08T10:32:58.210Z,33.40
2018-06-08T10:35:28.605Z,34.00
2018-06-08T10:37:56.909Z,34.40
2018-06-08T10:40:25.202Z,35.10
2018-06-08T10:42:53.611Z,35.00
2018-06-08T10:45:22.169Z,34.50
2018-06-08T10:47:50.388Z,33.70
2018-06-08T10:50:18.624Z,31.90
2018-06-08T10:52:46.829Z,31.00
2018-06-08T10:55:15.046Z,30.30
2018-06-08T10:57:43.721Z,30.00
2018-06-08T11:00:11.934Z,30.40
2018-06-08T11:02:40.179Z,31.20
2018-06-08T11:05:10.070Z,32.20
2018-06-08T11:07:38.513Z,33.50
2018-06-08T11:10:06.687Z,34.40
2018-06-08T11:12:34.985Z,33.80
2018-06-08T11:15:03.693Z,34.50
2018-06-08T11:17:32.506Z,35.40
2018-06-08T11:20:00.722Z,35.40
2018-06-08T11:22:28.924Z,36.10
2018-06-08T11:24:58.971Z,37.00
2018-06-08T11:27:27.717Z,37.50
2018-06-08T11:29:56.782Z,37.30
2018-06-08T11:32:24.993Z,37.20
2018-06-08T11:34:53.276Z,37.00
2018-06-08T11:37:21.696Z,36.00
2018-06-08T11:39:50.636Z,35.70
2018-06-08T11:42:19.666Z,35.80
2018-06-08T11:44:47.919Z,35.30
2018-06-08T11:47:16.201Z,35.60
2018-06-08T11:49:44.445Z,35.70
2018-06-08T11:52:12.694Z,35.90
2018-06-08T11:54:40.899Z,35.20
2018-06-08T11:57:09.126Z,33.10
2018-06-08T11:59:37.316Z,32.80
2018-06-08T12:02:05.872Z,33.70
2018-06-08T12:04:34.065Z,34.30
2018-06-08T12:07:02.265Z,34.60
2018-06-08T12:09:30.498Z,35.00
2018-06-08T12:11:58.740Z,35.10
2018-06-08T12:14:26.929Z,35.70
2018-06-08T12:16:55.157Z,36.20
2018-06-08T12:19:23.382Z,35.70
2018-06-08T12:21:51.585Z,35.00
2018-06-08T12:24:19.829Z,34.50
2018-06-08T12:26:48.342Z,35.20
2018-06-08T12:29:16.580Z,35.90
2018-06-08T12:31:44.753Z,36.30
2018-06-08T12:34:12.973Z,36.60
2018-06-08T12:36:41.174Z,35.80
2018-06-08T12:39:09.662Z,33.80
2018-06-08T12:41:37.805Z,32.30
2018-06-08T12:44:06.001Z,31.90
2018-06-08T12:46:34.962Z,32.00
2018-06-08T12:49:05.333Z,32.70
2018-06-08T12:51:34.269Z,33.50
2018-06-08T12:54:04.496Z,33.40
2018-06-08T12:56:33.308Z,33.40
2018-06-08T12:59:01.788Z,33.80
2018-06-08T13:01:29.989Z,34.00
2018-06-08T13:03:58.961Z,34.00
2018-06-08T13:06:27.247Z,33.80
2018-06-08T13:08:56.510Z,34.70
2018-06-08T13:11:24.689Z,35.00
2018-06-08T13:13:53.470Z,35.00
2018-06-08T13:16:22.870Z,35.30
2018-06-08T13:18:51.101Z,35.80
2018-06-08T13:21:19.285Z,35.70
2018-06-08T13:23:47.495Z,35.70
2018-06-08T13:26:16.317Z,36.60
2018-06-08T13:28:44.553Z,36.60
2018-06-08T13:31:13.649Z,37.00
2018-06-08T13:33:41.845Z,37.00
2018-06-08T13:36:10.086Z,37.80
2018-06-08T13:38:38.331Z,38.00
2018-06-08T13:41:07.526Z,38.00
2018-06-08T13:43:35.802Z,38.30
2018-06-08T13:46:13.675Z,37.60
2018-06-08T13:48:41.874Z,37.70
2018-06-08T13:51:10.695Z,36.40
2018-06-08T13:53:38.901Z,35.80
2018-06-08T13:56:07.114Z,36.30
2018-06-08T13:58:35.313Z,36.70
2018-06-08T14:01:03.545Z,37.00
2018-06-08T14:03:31.805Z,37.00
2018-06-08T14:06:00.032Z,36.60
2018-06-08T14:08:28.890Z,36.40
2018-06-08T14:10:57.369Z,35.60
2018-06-08T14:13:25.601Z,35.00
2018-06-08T14:15:54.228Z,35.10
2018-06-08T14:18:22.756Z,35.20
2018-06-08T14:20:50.982Z,35.30
2018-06-08T14:23:19.539Z,35.80
2018-06-08T14:25:47.730Z,36.50
2018-06-08T14:28:17.649Z,37.10
2018-06-08T14:30:45.997Z,37.30
2018-06-08T14:33:14.714Z,36.90
2018-06-08T14:35:42.930Z,36.80
2018-06-08T14:38:11.612Z,35.40
2018-06-08T14:40:41.052Z,34.40
2018-06-08T14:43:09.855Z,33.20
2018-06-08T14:45:38.037Z,32.70
2018-06-08T14:48:06.241Z,32.20
2018-06-08T14:50:34.394Z,31.90
2018-06-08T14:53:03.417Z,32.10
2018-06-08T14:57:59.749Z,31.90
2018-06-08T15:00:28.894Z,32.40
2018-06-08T15:02:57.469Z,33.20
2018-06-08T15:05:25.687Z,33.70
2018-06-08T15:07:53.898Z,33.50
2018-06-08T15:10:22.078Z,33.30
2018-06-08T15:12:50.377Z,32.90
2018-06-08T15:15:18.670Z,32.50
2018-06-08T15:17:46.886Z,32.30
2018-06-08T15:20:15.067Z,32.10
2018-06-08T15:22:45.755Z,32.30
2018-06-08T15:25:14.001Z,32.70
2018-06-08T15:27:42.209Z,32.90
2018-06-08T15:30:10.778Z,33.30
2018-06-08T15:32:38.922Z,33.40
2018-06-08T15:35:08.139Z,33.60
2018-06-08T15:37:36.313Z,33.70
2018-06-08T15:40:04.542Z,33.90
2018-06-08T15:42:32.744Z,34.50
2018-06-08T15:45:02.085Z,34.70
2018-06-08T15:47:30.256Z,34.90
2018-06-08T15:49:58.501Z,35.10
2018-06-08T15:52:26.741Z,34.50
2018-06-08T15:54:54.967Z,33.90
2018-06-08T15:57:23.163Z,33.90
2018-06-08T15:59:51.381Z,34.30
2018-06-08T16:02:20.149Z,34.80
2018-06-08T16:04:48.357Z,34.70
2018-06-08T16:07:16.606Z,34.70
2018-06-08T16:09:45.240Z,34.60
2018-06-08T16:12:13.430Z,34.40
2018-06-08T16:14:41.609Z,34.60
2018-06-08T16:17:09.830Z,34.40
2018-06-08T16:19:38.018Z,34.00
2018-06-08T16:22:06.259Z,33.80
2018-06-08T16:24:35.293Z,33.40
2018-06-08T16:27:04.737Z,33.20
2018-06-08T16:29:32.953Z,32.90
2018-06-08T16:32:01.225Z,32.50
2018-06-08T16:34:29.841Z,32.10
2018-06-08T16:36:59.331Z,32.10
2018-06-08T16:39:27.570Z,31.50
2018-06-08T16:41:55.802Z,31.70
2018-06-08T16:44:24.057Z,32.00
2018-06-08T16:46:53.278Z,32.30
2018-06-08T16:49:22.657Z,32.50
2018-06-08T16:51:51.501Z,32.60
2018-06-08T16:54:19.752Z,31.90
2018-06-08T16:56:48.946Z,31.90
2018-06-08T16:59:18.165Z,31.90
2018-06-08T17:01:46.421Z,31.70
2018-06-08T17:04:15.358Z,31.70
2018-06-08T17:06:43.541Z,31.60
2018-06-08T17:09:11.730Z,30.60
2018-06-08T17:11:40.894Z,28.80
2018-06-08T17:14:09.150Z,27.50
2018-06-08T17:16:37.410Z,26.70
2018-06-08T17:19:05.599Z,26.30
2018-06-08T17:21:34.057Z,26.20
2018-06-08T17:24:02.763Z,26.10
2018-06-08T17:26:31.013Z,26.00
2018-06-08T17:28:59.254Z,26.00
2018-06-08T17:31:31.486Z,26.10
2018-06-08T17:33:59.669Z,26.00
2018-06-08T17:36:27.918Z,25.90
2018-06-08T17:38:56.202Z,26.00
2018-06-08T17:41:25.076Z,25.90
2018-06-08T17:43:53.276Z,25.30
2018-06-08T17:46:22.602Z,24.50
2018-06-08T17:48:51.190Z,23.90
2018-06-08T17:51:19.414Z,23.60
2018-06-08T17:53:47.907Z,23.70
2018-06-08T17:56:16.918Z,23.60
2018-06-08T17:58:45.117Z,23.60
2018-06-08T18:01:13.857Z,23.70
2018-06-08T18:03:42.653Z,23.90
2018-06-08T18:06:10.959Z,24.00
2018-06-08T18:08:39.838Z,24.30
2018-06-08T18:11:08.849Z,24.50
2018-06-08T18:16:05.849Z,24.60
2018-06-08T18:18:34.077Z,24.20
2018-06-08T18:21:02.674Z,24.20
2018-06-08T18:23:30.953Z,24.20
2018-06-08T18:25:59.162Z,24.00
2018-06-08T18:28:27.365Z,23.90
2018-06-08T18:30:55.546Z,23.70
2018-06-08T18:33:24.742Z,23.60
2018-06-08T18:35:52.954Z,23.70
2018-06-08T18:38:21.225Z,23.70
2018-06-08T18:40:49.410Z,23.80
2018-06-08T18:43:17.611Z,23.90
2018-06-08T18:45:45.837Z,24.00
2018-06-08T18:48:14.045Z,23.90
2018-06-08T18:50:42.943Z,23.80
2018-06-08T18:53:11.130Z,23.70
2018-06-08T18:55:39.405Z,23.60
2018-06-08T18:58:07.541Z,23.50
2018-06-08T19:00:35.798Z,23.40
2018-06-08T19:03:04.738Z,23.30
2018-06-08T19:05:32.914Z,23.10
2018-06-08T19:08:01.153Z,22.90
2018-06-08T19:10:29.386Z,22.80
2018-06-08T19:12:57.590Z,22.60
2018-06-08T19:15:25.822Z,22.50
2018-06-08T19:17:54.025Z,22.40
2018-06-08T19:20:23.002Z,22.30
2018-06-08T19:22:51.221Z,22.30
2018-06-08T19:25:19.470Z,22.20
2018-06-08T19:27:48.793Z,21.90
2018-06-08T19:30:17.797Z,21.50
2018-06-08T19:32:46.699Z,21.30
2018-06-08T19:35:16.327Z,21.20
2018-06-08T19:37:44.534Z,21.00
2018-06-08T19:40:12.758Z,20.90
2018-06-08T19:42:42.546Z,20.90
2018-06-08T19:45:10.773Z,20.90
2018-06-08T19:47:39.232Z,20.60
2018-06-08T19:50:07.539Z,20.30
2018-06-08T19:55:05.288Z,19.90
2018-06-08T19:57:33.522Z,19.80
2018-06-08T20:00:01.743Z,19.70
2018-06-08T20:02:31.558Z,19.80
2018-06-08T20:05:00.112Z,19.70
2018-06-08T20:07:28.317Z,19.70
2018-06-08T20:09:56.535Z,19.80
2018-06-08T20:12:24.741Z,19.80
2018-06-08T20:14:53.228Z,19.60
2018-06-08T20:17:22.510Z,19.40
2018-06-08T20:19:50.727Z,19.20
2018-06-08T20:22:18.963Z,19.00
2018-06-08T20:24:47.197Z,18.80
2018-06-08T20:27:16.273Z,18.70
2018-06-08T20:29:45.021Z,18.70
2018-06-08T20:32:13.231Z,18.90
2018-06-08T20:34:41.452Z,19.00
2018-06-08T20:37:11.012Z,19.10
2018-06-08T20:39:39.224Z,18.90
2018-06-08T20:42:07.456Z,18.50
2018-06-08T20:44:35.677Z,18.30
2018-06-08T20:47:04.845Z,18.40
2018-06-08T20:49:33.450Z,18.40
2018-06-08T20:52:01.730Z,18.50
2018-06-08T20:54:29.990Z,18.50
2018-06-08T20:57:09.481Z,18.20
2018-06-08T20:59:37.714Z,17.90
2018-06-08T21:02:07.184Z,17.70
2018-06-08T21:04:35.376Z,17.80
2018-06-08T21:07:03.661Z,17.90
2018-06-08T21:09:32.767Z,17.90
2018-06-08T21:12:01.602Z,17.90
2018-06-08T21:14:29.821Z,17.80
2018-06-08T21:16:58.018Z,17.70
2018-06-08T21:19:26.241Z,17.70
2018-06-08T21:21:54.456Z,17.70
2018-06-08T21:24:22.653Z,17.70
2018-06-08T21:26:50.921Z,17.80
2018-06-08T21:29:19.205Z,17.90
2018-06-08T21:31:47.437Z,17.90
2018-06-08T21:34:15.690Z,18.10
2018-06-08T21:36:45.083Z,18.10
2018-06-08T21:39:13.317Z,17.90
2018-06-08T21:41:41.569Z,17.70
2018-06-08T21:44:10.162Z,17.60
2018-06-08T21:46:39.602Z,17.70
2018-06-08T21:49:07.850Z,17.80
2018-06-08T21:51:36.433Z,17.80
2018-06-08T21:54:04.675Z,17.70
2018-06-08T21:56:33.301Z,17.50
2018-06-08T21:59:02.233Z,17.40
2018-06-08T22:01:30.482Z,17.50
2018-06-08T22:03:58.678Z,17.50
2018-06-08T22:06:27.882Z,17.60
2018-06-08T22:08:56.105Z,17.60
2018-06-08T22:11:24.329Z,17.60
2018-06-08T22:13:53.202Z,17.70
2018-06-08T22:16:21.421Z,17.70
2018-06-08T22:18:49.972Z,17.70
2018-06-08T22:21:18.230Z,17.70
2018-06-08T22:23:46.505Z,17.90
2018-06-08T22:26:14.724Z,18.00
2018-06-08T22:28:42.914Z,18.00
2018-06-08T22:31:11.145Z,18.10
2018-06-08T22:33:39.337Z,18.10
2018-06-08T22:36:08.070Z,17.90
2018-06-08T22:38:36.262Z,17.90
2018-06-08T22:41:04.881Z,17.80
2018-06-08T22:43:33.745Z,17.80
2018-06-08T22:46:02.598Z,17.80
2018-06-08T22:48:30.890Z,17.90
2018-06-08T22:50:59.738Z,17.90
2018-06-08T22:53:27.965Z,17.90
2018-06-08T22:55:56.221Z,17.90
2018-06-08T22:58:24.447Z,17.80
2018-06-08T23:00:52.739Z,17.80
2018-06-08T23:03:21.007Z,17.80
2018-06-08T23:05:49.875Z,17.70
2018-06-08T23:08:25.728Z,17.70
2018-06-08T23:10:55.150Z,17.80
2018-06-08T23:13:24.393Z,17.80
2018-06-08T23:15:52.642Z,17.90
2018-06-08T23:18:21.854Z,17.90
2018-06-08T23:20:50.085Z,17.80
2018-06-08T23:23:18.798Z,17.50
2018-06-08T23:25:47.546Z,17.50
2018-06-08T23:28:16.684Z,17.50
2018-06-08T23:30:44.913Z,17.40
2018-06-08T23:33:13.169Z,17.40
2018-06-08T23:35:41.419Z,17.50
2018-06-08T23:38:10.714Z,17.50
2018-06-08T23:40:38.910Z,17.50
2018-06-08T23:43:07.137Z,17.50
2018-06-08T23:45:35.329Z,17.50
2018-06-08T23:48:03.786Z,17.50
2018-06-08T23:50:32.014Z,17.30
2018-06-08T23:53:00.226Z,17.30
2018-06-08T23:55:28.765Z,17.40
2018-06-08T23:57:57.238Z,17.50
